Time;durP1;ratioP1;P1;durP2;ratioP2;P2;SDS_P1;SDS_P2;PMS_P1;PMS_P2;Temp;Humidity;BMP_temperature;BMP_pressure;BME280_temperature;BME280_humidity;BME280_pressure;Samples;Min_cycle;Max_cycle;Signal;HPM_P1;HPM_P2
2023/10/19 00:00:34;;;;;;;7.55;6.57;;;11.50;99.90;;;;;;5038362;28;20210;-59
2023/10/19 00:03:03;;;;;;;11.07;6.90;;;11.50;99.90;;;;;;5038370;28;20229;-61
2023/10/19 00:05:32;;;;;;;8.68;6.97;;;11.50;99.90;;;;;;5036910;28;20202;-59
2023/10/19 00:08:05;;;;;;;9.00;7.22;;;11.60;99.90;;;;;;5036905;28;20219;-61
2023/10/19 00:10:34;;;;;;;8.48;6.70;;;11.60;99.90;;;;;;5038389;28;20738;-61
2023/10/19 00:13:04;;;;;;;10.43;6.65;;;11.60;99.90;;;;;;5038416;28;20237;-61
2023/10/19 00:15:34;;;;;;;7.20;6.50;;;11.60;99.90;;;;;;5038784;28;20293;-61
2023/10/19 00:18:20;;;;;;;8.05;7.13;;;11.60;99.90;;;;;;5032347;28;20631;-61
2023/10/19 00:20:59;;;;;;;7.20;6.47;;;11.60;99.90;;;;;;5038829;28;20231;-60
2023/10/19 00:23:30;;;;;;;9.68;6.97;;;11.60;99.90;;;;;;5038859;28;20210;-61
2023/10/19 00:25:58;;;;;;;8.45;7.57;;;11.60;99.90;;;;;;5039187;28;20206;-60
2023/10/19 00:28:26;;;;;;;8.60;6.95;;;11.60;99.90;;;;;;5038150;28;20226;-60
2023/10/19 00:31:04;;;;;;;7.95;7.10;;;11.60;99.90;;;;;;5038164;28;20583;-61
2023/10/19 00:33:32;;;;;;;11.77;8.10;;;11.60;99.90;;;;;;5037552;28;20288;-61
2023/10/19 00:36:07;;;;;;;7.90;7.10;;;11.60;99.90;;;;;;5038050;28;20210;-61
2023/10/19 00:38:47;;;;;;;10.45;7.80;;;11.60;99.90;;;;;;5037825;28;20683;-61
2023/10/19 00:41:20;;;;;;;8.90;7.82;;;11.60;99.90;;;;;;5038205;28;20217;-60
2023/10/19 00:43:49;;;;;;;8.73;7.85;;;11.60;99.90;;;;;;5037927;28;20210;-60
2023/10/19 00:46:22;;;;;;;10.60;8.07;;;11.60;99.90;;;;;;5037969;28;20229;-61
2023/10/19 00:48:55;;;;;;;13.18;8.65;;;11.60;99.90;;;;;;5037072;28;20226;-60
2023/10/19 00:51:37;;;;;;;12.52;8.00;;;11.60;99.90;;;;;;5037088;28;20213;-61
2023/10/19 00:54:08;;;;;;;9.20;8.02;;;11.60;99.90;;;;;;5035214;28;20249;-60
2023/10/19 00:56:36;;;;;;;10.63;8.07;;;11.60;99.90;;;;;;5037191;28;20248;-62
2023/10/19 00:59:12;;;;;;;8.93;8.10;;;11.60;99.90;;;;;;5037223;28;20223;-62
2023/10/19 01:01:44;;;;;;;9.35;8.13;;;11.60;99.90;;;;;;5037188;28;20225;-61
2023/10/19 01:04:14;;;;;;;8.23;7.45;;;11.70;99.90;;;;;;5036898;28;20272;-61
2023/10/19 01:06:44;;;;;;;10.15;8.85;;;11.60;99.90;;;;;;5028687;28;20203;-61
2023/10/19 01:09:14;;;;;;;10.05;8.27;;;11.60;99.90;;;;;;5034973;28;20226;-61
2023/10/19 01:11:49;;;;;;;9.10;8.02;;;11.60;99.90;;;;;;5037213;28;20202;-61
2023/10/19 01:14:21;;;;;;;10.68;9.13;;;11.70;99.90;;;;;;5036332;28;20232;-61
2023/10/19 01:16:51;;;;;;;9.45;8.50;;;11.70;99.90;;;;;;5033651;28;20618;-61
2023/10/19 01:19:20;;;;;;;10.70;8.50;;;11.70;99.90;;;;;;5030277;28;20783;-58
2023/10/19 01:21:52;;;;;;;11.43;7.97;;;11.70;99.90;;;;;;5035114;28;20281;-61
2023/10/19 01:24:32;;;;;;;9.88;8.63;;;11.70;99.90;;;;;;5035200;28;20226;-61
2023/10/19 01:27:00;;;;;;;10.65;8.70;;;11.70;99.90;;;;;;5035068;28;20206;-61
2023/10/19 01:29:28;;;;;;;11.55;9.50;;;11.70;99.90;;;;;;5035310;28;20234;-61
2023/10/19 01:32:06;;;;;;;9.45;8.45;;;11.70;99.90;;;;;;5037523;28;20236;-60
2023/10/19 01:34:34;;;;;;;10.63;8.57;;;11.70;99.90;;;;;;5039032;28;20288;-61
2023/10/19 01:37:03;;;;;;;11.88;9.07;;;11.70;99.90;;;;;;5038606;28;20206;-62
2023/10/19 01:39:35;;;;;;;10.32;9.05;;;11.70;99.90;;;;;;5038037;28;20270;-59
2023/10/19 01:42:04;;;;;;;12.20;9.70;;;11.70;99.90;;;;;;5038894;28;20237;-61
2023/10/19 01:44:31;;;;;;;11.88;9.48;;;11.70;99.90;;;;;;5037783;28;20206;-60
2023/10/19 01:47:00;;;;;;;12.30;8.98;;;11.70;99.90;;;;;;5038642;28;20238;-61
2023/10/19 01:49:28;;;;;;;10.80;9.48;;;11.70;99.90;;;;;;5038506;28;20230;-61
2023/10/19 01:51:56;;;;;;;10.82;9.73;;;11.80;99.90;;;;;;5039228;28;20213;-60
2023/10/19 01:54:24;;;;;;;11.80;8.75;;;11.70;99.90;;;;;;5038707;28;20231;-60
2023/10/19 01:56:56;;;;;;;10.45;9.35;;;11.70;99.90;;;;;;5035858;28;20206;-61
2023/10/19 01:59:27;;;;;;;11.15;9.15;;;11.80;99.90;;;;;;5038830;28;20719;-61
2023/10/19 02:01:56;;;;;;;13.20;10.65;;;11.70;99.90;;;;;;5038125;28;20220;-61
2023/10/19 02:04:23;;;;;;;10.68;9.35;;;11.80;99.90;;;;;;5037756;28;20234;-60
2023/10/19 02:06:53;;;;;;;10.50;9.35;;;11.80;99.90;;;;;;5037716;28;20218;-61
2023/10/19 02:09:21;;;;;;;17.10;11.50;;;11.80;99.90;;;;;;5037058;28;20234;-61
2023/10/19 02:11:52;;;;;;;12.05;10.75;;;11.70;99.90;;;;;;5036957;28;20210;-61
2023/10/19 02:14:21;;;;;;;15.60;12.90;;;11.70;99.90;;;;;;5037019;28;20611;-59
2023/10/19 02:16:51;;;;;;;13.82;12.30;;;11.80;99.90;;;;;;5036454;28;20203;-61
2023/10/19 02:19:19;;;;;;;11.90;10.65;;;11.80;99.90;;;;;;5037129;28;20261;-61
2023/10/19 02:21:48;;;;;;;16.52;13.13;;;11.80;99.90;;;;;;5038577;28;20208;-61
2023/10/19 02:24:16;;;;;;;15.75;12.00;;;11.80;99.90;;;;;;5037030;28;20202;-61
2023/10/19 02:26:44;;;;;;;12.52;11.05;;;11.80;99.90;;;;;;5036993;28;20237;-60
2023/10/19 02:29:12;;;;;;;15.20;12.32;;;11.80;99.90;;;;;;5038468;28;20314;-61
2023/10/19 02:31:41;;;;;;;22.52;13.45;;;11.80;99.90;;;;;;5037680;28;20213;-61
2023/10/19 02:34:10;;;;;;;28.85;18.27;;;11.80;99.90;;;;;;5039671;28;20233;-59
2023/10/19 02:36:38;;;;;;;23.52;17.80;;;11.80;99.90;;;;;;5040640;28;20218;-60
2023/10/19 02:39:08;;;;;;;24.27;17.60;;;11.90;99.90;;;;;;5039912;28;20299;-60
2023/10/19 02:41:35;;;;;;;27.02;20.98;;;11.90;99.90;;;;;;5037449;28;20207;-60
2023/10/19 02:44:07;;;;;;;32.47;23.48;;;12.00;99.90;;;;;;5039492;28;20285;-60
2023/10/19 02:46:34;;;;;;;29.95;21.77;;;12.00;99.90;;;;;;5041687;28;20203;-60
2023/10/19 02:49:04;;;;;;;32.08;23.40;;;12.00;99.90;;;;;;5041406;28;20257;-61
2023/10/19 02:51:31;;;;;;;33.10;23.55;;;12.10;99.90;;;;;;5040082;28;20273;-61
2023/10/19 02:54:02;;;;;;;29.15;23.42;;;12.10;99.90;;;;;;5039354;28;20254;-60
2023/10/19 02:56:29;;;;;;;30.58;21.58;;;12.10;99.90;;;;;;5038758;28;20218;-61
2023/10/19 02:59:03;;;;;;;30.63;21.83;;;12.20;99.90;;;;;;5038804;28;20231;-60
2023/10/19 03:01:33;;;;;;;29.88;22.02;;;12.20;99.90;;;;;;5038895;28;20230;-60
2023/10/19 03:04:01;;;;;;;27.52;20.98;;;12.20;99.90;;;;;;5038873;28;20298;-62
2023/10/19 03:06:32;;;;;;;25.92;20.45;;;12.20;99.90;;;;;;5038495;28;20241;-61
2023/10/19 03:09:01;;;;;;;30.02;21.90;;;12.20;99.90;;;;;;5037271;28;20227;-60
2023/10/19 03:11:29;;;;;;;23.63;18.90;;;12.20;99.90;;;;;;5038005;28;20210;-61
2023/10/19 03:13:57;;;;;;;32.28;22.85;;;12.20;99.90;;;;;;5038301;28;20225;-62
2023/10/19 03:16:28;;;;;;;31.08;22.52;;;12.20;99.90;;;;;;5037314;28;20908;-61
2023/10/19 03:18:56;;;;;;;29.13;22.00;;;12.20;99.90;;;;;;5037558;28;20587;-59
2023/10/19 03:21:26;;;;;;;32.15;22.80;;;12.30;99.90;;;;;;5037751;28;20275;-58
2023/10/19 03:23:56;;;;;;;32.75;23.65;;;12.30;99.90;;;;;;5037761;28;20207;-60
2023/10/19 03:26:30;;;;;;;29.05;21.40;;;12.30;99.90;;;;;;5038675;28;20247;-58
2023/10/19 03:29:02;;;;;;;26.38;21.40;;;12.30;99.90;;;;;;5038093;28;20792;-60
2023/10/19 03:31:32;;;;;;;24.60;20.52;;;12.30;99.90;;;;;;5038514;28;20211;-61
2023/10/19 03:34:05;;;;;;;25.15;21.02;;;12.30;99.90;;;;;;5038391;28;20245;-61
2023/10/19 03:36:33;;;;;;;26.70;21.08;;;12.40;99.90;;;;;;5037612;28;20234;-61
2023/10/19 03:39:11;;;;;;;28.40;21.08;;;12.30;99.90;;;;;;5036863;28;20235;-60
2023/10/19 03:41:41;;;;;;;25.98;19.65;;;12.30;99.90;;;;;;5037586;28;20214;-61
2023/10/19 03:44:13;;;;;;;20.92;17.33;;;12.40;99.90;;;;;;5037200;28;20242;-61
2023/10/19 03:46:52;;;;;;;21.05;17.52;;;12.30;99.90;;;;;;5035366;28;20206;-61
2023/10/19 03:49:21;;;;;;;20.58;16.10;;;12.40;99.90;;;;;;5036131;28;20232;-59
2023/10/19 03:52:00;;;;;;;23.20;18.95;;;12.30;99.90;;;;;;5035335;28;20718;-61
2023/10/19 03:54:32;;;;;;;19.42;16.63;;;12.30;99.90;;;;;;5035550;28;20276;-61
2023/10/19 03:57:01;;;;;;;30.35;21.92;;;12.30;99.90;;;;;;5037795;28;20206;-61
2023/10/19 03:59:31;;;;;;;28.48;21.40;;;12.30;99.90;;;;;;5037988;28;20410;-61
2023/10/19 04:02:00;;;;;;;25.65;20.77;;;12.30;99.90;;;;;;5037617;28;20290;-61
2023/10/19 04:04:29;;;;;;;20.85;17.83;;;12.40;99.90;;;;;;5036850;28;20230;-60
2023/10/19 04:06:58;;;;;;;25.13;18.98;;;12.40;99.90;;;;;;5037216;28;20217;-60
2023/10/19 04:09:29;;;;;;;29.13;21.13;;;12.40;99.90;;;;;;5036747;28;20218;-59
2023/10/19 04:11:58;;;;;;;32.08;22.10;;;12.40;99.90;;;;;;5037301;28;20206;-60
2023/10/19 04:14:30;;;;;;;27.15;20.58;;;12.40;99.90;;;;;;5036536;28;20230;-60
2023/10/19 04:16:59;;;;;;;26.02;20.92;;;12.40;99.90;;;;;;5036448;28;20237;-61
2023/10/19 04:19:28;;;;;;;29.13;21.42;;;12.40;99.90;;;;;;5035374;28;20231;-58
2023/10/19 04:21:57;;;;;;;30.45;22.23;;;12.40;99.90;;;;;;5036071;28;20264;-61
2023/10/19 04:24:25;;;;;;;33.08;24.23;;;12.40;99.90;;;;;;5035705;28;20206;-60
2023/10/19 04:26:55;;;;;;;32.78;23.20;;;12.40;99.90;;;;;;5033400;28;20268;-60
2023/10/19 04:29:27;;;;;;;34.20;25.73;;;12.40;99.90;;;;;;5034831;28;20258;-61
2023/10/19 04:31:55;;;;;;;35.15;25.85;;;12.40;99.90;;;;;;5027253;28;20253;-61
2023/10/19 04:34:24;;;;;;;35.47;24.65;;;12.40;99.90;;;;;;5035240;28;20656;-61
2023/10/19 04:36:52;;;;;;;33.53;25.35;;;12.40;99.90;;;;;;5030338;28;20222;-61
2023/10/19 04:39:21;;;;;;;37.75;24.80;;;12.40;99.90;;;;;;5035687;28;20288;-61
2023/10/19 04:41:49;;;;;;;37.22;25.33;;;12.50;99.90;;;;;;5035014;28;20355;-61
2023/10/19 04:44:17;;;;;;;34.95;24.27;;;12.50;99.90;;;;;;5035411;28;20210;-60
2023/10/19 04:46:46;;;;;;;34.15;23.63;;;12.50;99.90;;;;;;5035111;28;20198;-61
2023/10/19 04:49:16;;;;;;;30.50;23.33;;;12.50;99.90;;;;;;5035455;28;20245;-61
2023/10/19 04:51:44;;;;;;;33.50;24.48;;;12.50;99.90;;;;;;5034563;28;20217;-61
2023/10/19 04:54:12;;;;;;;33.60;23.45;;;12.50;99.90;;;;;;5034383;28;20207;-60
2023/10/19 04:56:39;;;;;;;31.70;24.38;;;12.50;99.90;;;;;;5034266;28;20262;-61
2023/10/19 04:59:07;;;;;;;31.60;23.63;;;12.50;99.90;;;;;;5034513;28;20272;-61
2023/10/19 05:01:35;;;;;;;39.30;25.80;;;12.50;99.90;;;;;;5033604;28;20236;-61
2023/10/19 05:04:05;;;;;;;37.15;25.05;;;12.50;99.90;;;;;;5033935;28;20231;-61
2023/10/19 05:06:33;;;;;;;35.67;25.55;;;12.50;99.90;;;;;;5036965;28;20288;-59
2023/10/19 05:09:03;;;;;;;36.55;25.27;;;12.50;99.90;;;;;;5036723;28;20747;-61
2023/10/19 05:11:30;;;;;;;34.47;24.67;;;12.50;99.90;;;;;;5037443;28;20274;-61
2023/10/19 05:13:58;;;;;;;37.33;25.40;;;12.50;99.90;;;;;;5037882;28;20238;-61
2023/10/19 05:16:26;;;;;;;38.33;25.83;;;12.50;99.90;;;;;;5034865;28;20222;-60
2023/10/19 05:18:54;;;;;;;38.92;25.15;;;12.50;99.90;;;;;;5034514;28;20226;-60
2023/10/19 05:21:24;;;;;;;42.38;25.13;;;12.50;99.90;;;;;;5034361;28;20234;-58
2023/10/19 05:23:52;;;;;;;42.10;25.75;;;12.50;99.90;;;;;;5034584;28;20249;-61
2023/10/19 05:26:20;;;;;;;31.20;22.55;;;12.50;99.90;;;;;;5034714;28;20249;-61
2023/10/19 05:28:48;;;;;;;38.72;26.27;;;12.50;99.90;;;;;;5034244;28;20655;-61
2023/10/19 05:31:16;;;;;;;43.50;27.65;;;12.50;99.90;;;;;;5034452;28;20198;-61
2023/10/19 05:33:44;;;;;;;43.13;27.38;;;12.50;99.90;;;;;;5033644;28;20625;-61
2023/10/19 05:36:14;;;;;;;41.30;26.52;;;12.50;99.90;;;;;;5033189;28;20281;-61
2023/10/19 05:38:44;;;;;;;41.53;26.67;;;12.50;99.90;;;;;;5033607;28;20288;-60
2023/10/19 05:41:11;;;;;;;46.83;28.45;;;12.50;99.90;;;;;;5034000;28;20234;-61
2023/10/19 05:43:39;;;;;;;46.40;27.33;;;12.60;99.90;;;;;;5051601;23;20253;-73
2023/10/19 05:46:07;;;;;;;39.55;26.17;;;12.60;99.90;;;;;;5053643;28;20209;-73
2023/10/19 05:48:35;;;;;;;41.00;26.98;;;12.60;99.90;;;;;;5045073;28;20264;-72
2023/10/19 05:51:03;;;;;;;46.55;26.77;;;12.60;99.90;;;;;;5033448;28;20740;-72
2023/10/19 05:53:32;;;;;;;49.05;28.95;;;12.60;99.90;;;;;;5033457;28;20219;-72
2023/10/19 05:56:02;;;;;;;48.00;29.55;;;12.60;99.90;;;;;;5033695;28;20223;-72
2023/10/19 05:58:30;;;;;;;49.42;28.98;;;12.60;99.90;;;;;;5033614;28;20214;-73
2023/10/19 06:00:59;;;;;;;47.67;28.75;;;12.60;99.90;;;;;;5033641;28;20210;-73
2023/10/19 06:03:27;;;;;;;50.35;29.10;;;12.60;99.90;;;;;;5033470;28;20227;-72
2023/10/19 06:05:57;;;;;;;48.40;30.00;;;12.60;99.90;;;;;;5033698;28;20203;-72
2023/10/19 06:08:26;;;;;;;51.40;30.23;;;12.60;99.90;;;;;;5039618;28;20207;-72
2023/10/19 06:10:54;;;;;;;53.78;30.95;;;12.60;99.90;;;;;;5038977;28;20234;-72
2023/10/19 06:13:24;;;;;;;54.72;31.90;;;12.60;99.90;;;;;;5032996;28;20207;-72
2023/10/19 06:15:51;;;;;;;52.75;31.00;;;12.70;99.90;;;;;;5040928;28;20205;-72
2023/10/19 06:18:20;;;;;;;48.88;30.25;;;12.70;99.90;;;;;;5037203;28;20652;-72
2023/10/19 06:20:50;;;;;;;48.88;29.50;;;12.70;99.90;;;;;;5033773;28;20297;-72
2023/10/19 06:23:18;;;;;;;60.97;31.77;;;12.70;99.90;;;;;;5033132;28;20234;-72
2023/10/19 06:25:46;;;;;;;50.22;29.08;;;12.70;99.90;;;;;;5035332;28;20202;-72
2023/10/19 06:28:15;;;;;;;56.03;30.55;;;12.70;99.90;;;;;;5053427;28;20210;-72
2023/10/19 06:30:45;;;;;;;54.70;31.50;;;12.70;99.90;;;;;;5053077;28;20264;-72
2023/10/19 06:33:12;;;;;;;59.80;30.80;;;12.70;99.90;;;;;;5045503;28;20206;-72
2023/10/19 06:35:41;;;;;;;50.25;31.23;;;12.70;99.90;;;;;;5035665;28;20257;-72
2023/10/19 06:38:09;;;;;;;58.20;31.02;;;12.70;99.90;;;;;;5041256;28;20210;-72
2023/10/19 06:40:37;;;;;;;53.28;31.40;;;12.80;99.90;;;;;;5033182;28;20745;-72
2023/10/19 06:43:06;;;;;;;56.33;33.58;;;12.80;99.90;;;;;;5044452;28;20304;-72
2023/10/19 06:45:34;;;;;;;58.35;33.58;;;12.80;99.90;;;;;;5036806;28;20210;-73
2023/10/19 06:48:04;;;;;;;57.60;31.88;;;12.80;99.90;;;;;;5041200;28;20199;-72
2023/10/19 06:50:32;;;;;;;58.45;32.53;;;12.80;99.90;;;;;;5033369;28;20234;-72
2023/10/19 06:53:00;;;;;;;55.85;32.03;;;12.80;99.90;;;;;;5050814;28;20202;-72
2023/10/19 06:55:28;;;;;;;59.05;32.63;;;12.90;99.90;;;;;;5052897;28;20273;-72
2023/10/19 06:57:56;;;;;;;61.50;31.02;;;12.90;99.90;;;;;;5052467;28;20240;-72
2023/10/19 07:00:26;;;;;;;57.00;31.67;;;12.90;99.90;;;;;;5044422;28;20217;-72
2023/10/19 07:02:55;;;;;;;56.38;32.15;;;12.90;99.90;;;;;;5052106;28;20304;-72
2023/10/19 07:05:25;;;;;;;60.60;33.15;;;12.90;99.90;;;;;;5045002;28;20229;-72
2023/10/19 07:07:54;;;;;;;54.30;31.70;;;13.00;99.90;;;;;;5031817;28;20656;-72
2023/10/19 07:10:23;;;;;;;55.17;32.17;;;13.00;99.90;;;;;;5032112;28;20211;-72
2023/10/19 07:12:53;;;;;;;62.60;33.47;;;13.00;99.90;;;;;;5032112;28;20213;-72
2023/10/19 07:15:22;;;;;;;57.72;32.85;;;13.00;99.90;;;;;;5030910;28;20277;-72
2023/10/19 07:17:52;;;;;;;59.97;33.67;;;13.00;99.90;;;;;;5032399;28;20215;-72
2023/10/19 07:20:25;;;;;;;63.90;34.30;;;13.00;99.90;;;;;;5032128;28;20257;-72
2023/10/19 07:22:54;;;;;;;59.97;34.45;;;13.00;99.90;;;;;;5031150;28;20210;-72
2023/10/19 07:25:22;;;;;;;67.22;36.42;;;13.00;99.90;;;;;;5039277;28;20229;-72
2023/10/19 07:27:50;;;;;;;61.28;34.55;;;13.00;99.90;;;;;;5040518;28;20198;-72
2023/10/19 07:30:21;;;;;;;59.95;32.58;;;13.10;99.90;;;;;;5039483;28;20206;-72
2023/10/19 07:32:54;;;;;;;65.88;35.03;;;13.10;99.90;;;;;;5040258;28;20210;-74
2023/10/19 07:35:22;;;;;;;63.72;35.00;;;13.10;99.90;;;;;;5032152;28;20230;-72
2023/10/19 07:37:50;;;;;;;65.25;35.72;;;13.10;99.90;;;;;;5032116;28;20230;-72
2023/10/19 07:40:20;;;;;;;64.60;35.70;;;13.10;99.90;;;;;;5040325;28;20273;-72
2023/10/19 07:42:49;;;;;;;66.63;35.38;;;13.20;99.90;;;;;;5031135;28;20222;-72
2023/10/19 07:45:21;;;;;;;66.80;35.85;;;13.20;99.90;;;;;;5039760;28;20779;-72
2023/10/19 07:47:49;;;;;;;60.20;33.30;;;13.20;99.90;;;;;;5031721;28;20210;-72
2023/10/19 07:50:17;;;;;;;63.70;35.58;;;13.20;99.90;;;;;;5031644;28;20202;-72
2023/10/19 07:52:47;;;;;;;53.33;33.72;;;13.30;99.90;;;;;;5032048;28;20202;-72
2023/10/19 07:55:15;;;;;;;55.70;32.67;;;13.30;99.90;;;;;;5038173;28;20616;-72
2023/10/19 07:57:44;;;;;;;58.03;33.10;;;13.30;99.90;;;;;;5030968;28;20226;-72
2023/10/19 08:00:13;;;;;;;53.78;32.67;;;13.40;99.90;;;;;;5039685;28;20304;-72
2023/10/19 08:02:45;;;;;;;49.55;31.15;;;13.40;99.90;;;;;;5048120;28;20213;-72
2023/10/19 08:05:13;;;;;;;51.15;32.08;;;13.50;99.90;;;;;;5041394;28;20308;-72
2023/10/19 08:07:42;;;;;;;51.30;31.48;;;13.50;99.90;;;;;;5034732;28;20672;-72
2023/10/19 08:10:11;;;;;;;46.97;29.80;;;13.50;99.90;;;;;;5039144;28;20202;-72
2023/10/19 08:12:41;;;;;;;46.85;30.80;;;13.50;99.90;;;;;;5039427;28;20364;-72
2023/10/19 08:15:11;;;;;;;45.25;30.15;;;13.60;99.90;;;;;;5043241;28;20221;-72
2023/10/19 08:17:40;;;;;;;48.72;29.88;;;13.60;99.90;;;;;;5042675;28;20264;-72
2023/10/19 08:20:09;;;;;;;42.38;29.08;;;13.60;99.90;;;;;;5051413;28;20221;-72
2023/10/19 08:22:37;;;;;;;41.03;29.10;;;13.60;99.90;;;;;;5051271;28;20202;-72
2023/10/19 08:25:11;;;;;;;41.03;28.42;;;13.60;99.90;;;;;;5030964;28;20226;-72
2023/10/19 08:27:41;;;;;;;43.90;28.20;;;13.60;99.90;;;;;;5039291;28;20237;-72
2023/10/19 08:30:12;;;;;;;39.60;28.33;;;13.60;99.90;;;;;;5031017;28;20199;-72
2023/10/19 08:32:41;;;;;;;39.85;28.98;;;13.70;99.90;;;;;;5035217;28;20203;-72
2023/10/19 08:35:11;;;;;;;34.90;26.73;;;13.70;99.90;;;;;;5037294;28;20301;-72
2023/10/19 08:37:39;;;;;;;39.97;28.35;;;13.70;99.90;;;;;;5046603;28;20629;-72
2023/10/19 08:40:08;;;;;;;37.00;26.80;;;13.70;99.90;;;;;;5047871;28;20283;-72
2023/10/19 08:42:36;;;;;;;32.90;26.63;;;13.80;99.90;;;;;;5054949;28;20652;-72
2023/10/19 08:45:08;;;;;;;35.42;26.77;;;13.80;99.90;;;;;;5054499;28;20221;-72
2023/10/19 08:47:37;;;;;;;33.33;26.20;;;13.80;99.90;;;;;;5034613;28;20194;-72
2023/10/19 08:50:07;;;;;;;38.55;27.27;;;13.90;99.90;;;;;;5037552;28;20271;-72
2023/10/19 08:52:35;;;;;;;36.42;26.67;;;13.90;99.90;;;;;;5047471;28;20292;-72
2023/10/19 08:55:05;;;;;;;38.40;27.17;;;13.90;99.90;;;;;;5053679;28;20228;-72
2023/10/19 08:57:32;;;;;;;42.65;26.48;;;14.00;99.90;;;;;;5052332;28;20766;-72
2023/10/19 09:00:01;;;;;;;40.65;29.10;;;14.00;99.90;;;;;;5039812;28;20680;-72
2023/10/19 09:02:29;;;;;;;34.22;26.50;;;14.10;99.90;;;;;;5041169;28;20292;-72
2023/10/19 09:04:59;;;;;;;34.60;28.60;;;14.10;99.90;;;;;;5037367;28;20230;-72
2023/10/19 09:07:30;;;;;;;36.72;27.63;;;14.10;99.90;;;;;;5033456;28;20195;-72
2023/10/19 09:09:58;;;;;;;38.00;27.40;;;14.20;99.90;;;;;;5042048;28;20217;-72
2023/10/19 09:12:26;;;;;;;32.85;25.75;;;14.20;99.90;;;;;;5033095;28;20298;-72
2023/10/19 09:14:54;;;;;;;34.22;26.83;;;14.20;99.90;;;;;;5042575;28;20317;-72
2023/10/19 09:17:28;;;;;;;41.45;27.52;;;14.30;99.90;;;;;;5034674;28;20317;-72
2023/10/19 09:19:59;;;;;;;35.28;28.70;;;14.40;99.90;;;;;;5034301;28;20210;-72
2023/10/19 09:22:27;;;;;;;36.00;28.20;;;14.50;99.90;;;;;;5040207;28;20209;-72
2023/10/19 09:24:55;;;;;;;42.28;28.20;;;14.60;99.90;;;;;;5044231;28;20687;-72
2023/10/19 09:27:23;;;;;;;30.77;25.92;;;14.60;99.90;;;;;;5034517;28;20207;-72
2023/10/19 09:29:51;;;;;;;29.70;25.30;;;14.70;99.90;;;;;;5034424;28;20314;-72
2023/10/19 09:32:19;;;;;;;35.63;26.88;;;14.80;99.90;;;;;;5042617;28;20202;-72
2023/10/19 09:34:47;;;;;;;32.67;26.33;;;14.90;99.90;;;;;;5033996;28;20227;-72
2023/10/19 09:37:18;;;;;;;31.58;25.10;;;14.90;99.90;;;;;;5042007;28;20288;-72
2023/10/19 09:39:46;;;;;;;32.55;25.55;;;15.00;99.90;;;;;;5042065;28;20248;-72
2023/10/19 09:42:16;;;;;;;34.03;26.15;;;15.10;99.90;;;;;;5034905;28;20213;-73
2023/10/19 09:44:45;;;;;;;40.28;27.95;;;15.30;99.90;;;;;;5053600;28;20280;-72
2023/10/19 09:47:16;;;;;;;34.63;26.77;;;15.30;99.90;;;;;;5045674;28;20287;-72
2023/10/19 09:49:44;;;;;;;36.15;27.08;;;15.40;99.90;;;;;;5053736;28;20202;-72
2023/10/19 09:52:13;;;;;;;30.65;25.00;;;15.80;99.90;;;;;;5035655;28;20277;-72
2023/10/19 09:54:49;;;;;;;32.13;23.38;;;16.30;99.90;;;;;;5050122;28;20305;-72
2023/10/19 09:57:19;;;;;;;26.05;21.33;;;17.10;99.90;;;;;;5053777;28;20296;-72
2023/10/19 09:59:49;;;;;;;27.73;22.50;;;17.50;99.90;;;;;;5053630;28;20663;-72
2023/10/19 10:02:18;;;;;;;26.88;22.02;;;17.40;99.90;;;;;;5045490;28;20204;-72
2023/10/19 10:04:48;;;;;;;24.50;20.17;;;17.30;99.90;;;;;;5053130;28;20316;-73
2023/10/19 10:07:16;;;;;;;24.83;20.70;;;17.40;99.90;;;;;;5053550;28;20205;-72
2023/10/19 10:10:04;;;;;;;29.60;20.08;;;17.30;99.90;;;;;;5047438;28;20245;-72
2023/10/19 10:12:34;;;;;;;20.23;17.95;;;17.30;99.90;;;;;;5045031;28;20664;-72
2023/10/19 10:15:07;;;;;;;19.13;16.52;;;17.40;99.90;;;;;;5039975;28;20215;-72
2023/10/19 10:17:38;;;;;;;17.58;15.60;;;17.50;99.90;;;;;;5034940;28;20210;-72
2023/10/19 10:20:34;;;;;;;18.75;15.63;;;17.50;99.90;;;;;;5040337;28;20217;-72
2023/10/19 10:23:21;;;;;;;19.67;15.38;;;17.50;99.90;;;;;;5041413;28;20206;-72
2023/10/19 10:25:50;;;;;;;19.45;15.18;;;17.80;99.90;;;;;;5033630;28;20268;-72
2023/10/19 10:28:19;;;;;;;17.83;14.57;;;18.10;99.90;;;;;;5033588;28;20222;-72
2023/10/19 10:31:14;;;;;;;17.58;14.50;;;18.50;99.90;;;;;;5037379;28;20210;-72
2023/10/19 10:33:44;;;;;;;15.50;12.68;;;18.60;99.90;;;;;;5038661;28;20695;-73
2023/10/19 10:36:13;;;;;;;14.65;12.60;;;18.80;99.90;;;;;;5036855;28;20217;-72
2023/10/19 10:38:41;;;;;;;19.20;11.93;;;19.10;99.90;;;;;;5041218;28;20771;-72
2023/10/19 10:41:10;;;;;;;17.92;12.55;;;19.10;99.90;;;;;;5033015;28;20213;-72
2023/10/19 10:43:54;;;;;;;12.98;11.68;;;19.00;99.90;;;;;;5032992;28;20340;-73
2023/10/19 10:46:23;;;;;;;16.58;11.85;;;19.00;99.90;;;;;;5032740;28;20206;-72
2023/10/19 10:48:51;;;;;;;16.20;11.57;;;19.10;99.90;;;;;;5035882;28;20291;-72
2023/10/19 10:51:21;;;;;;;14.98;11.05;;;19.10;99.90;;;;;;5038212;28;20206;-72
2023/10/19 10:53:50;;;;;;;17.63;10.88;;;19.10;99.90;;;;;;5040464;28;20271;-72
2023/10/19 10:56:19;;;;;;;15.48;10.63;;;19.10;99.90;;;;;;5042002;28;20293;-72
2023/10/19 10:58:47;;;;;;;14.75;10.98;;;18.90;99.90;;;;;;5036833;28;20233;-73
2023/10/19 11:01:15;;;;;;;14.63;10.93;;;18.70;99.90;;;;;;5048149;28;20284;-72
2023/10/19 11:03:43;;;;;;;12.98;10.77;;;18.50;99.90;;;;;;5037199;28;20257;-72
2023/10/19 11:06:11;;;;;;;16.05;11.73;;;18.30;99.90;;;;;;5034313;28;20206;-72
2023/10/19 11:08:39;;;;;;;11.90;10.70;;;18.20;99.90;;;;;;5032357;28;20230;-72
2023/10/19 11:11:10;;;;;;;15.70;11.80;;;18.00;99.90;;;;;;5032091;28;20301;-72
2023/10/19 11:13:40;;;;;;;17.75;12.40;;;17.90;99.90;;;;;;5031568;28;20699;-73
2023/10/19 11:16:09;;;;;;;16.67;11.45;;;17.90;99.90;;;;;;5032126;28;20680;-72
2023/10/19 11:18:39;;;;;;;16.58;12.77;;;17.90;99.90;;;;;;5040831;28;20312;-73
2023/10/19 11:21:09;;;;;;;15.90;11.98;;;17.80;99.90;;;;;;5051281;28;20260;-73
2023/10/19 11:23:38;;;;;;;16.65;12.55;;;17.70;99.90;;;;;;5052193;28;20629;-72
2023/10/19 11:26:06;;;;;;;17.20;12.07;;;17.60;99.90;;;;;;5051895;28;20666;-72
2023/10/19 11:28:38;;;;;;;18.50;12.38;;;17.50;99.90;;;;;;5052088;28;20233;-73
2023/10/19 11:31:19;;;;;;;18.25;11.60;;;17.50;99.90;;;;;;5043722;28;20296;-73
2023/10/19 11:33:49;;;;;;;15.75;11.88;;;17.40;99.90;;;;;;5051466;28;20293;-72
2023/10/19 11:36:17;;;;;;;20.15;13.40;;;17.30;99.90;;;;;;5051866;28;20267;-72
2023/10/19 11:38:47;;;;;;;15.75;12.15;;;17.30;99.90;;;;;;5052060;28;20231;-72
2023/10/19 11:41:16;;;;;;;15.45;12.18;;;17.30;99.90;;;;;;5043646;28;20217;-73
2023/10/19 11:43:45;;;;;;;17.30;12.45;;;17.30;99.90;;;;;;5044134;28;20230;-72
2023/10/19 11:46:14;;;;;;;17.52;12.23;;;17.30;99.90;;;;;;5051257;28;20689;-72
2023/10/19 11:48:44;;;;;;;16.58;12.65;;;17.30;99.90;;;;;;5051346;28;20579;-72
2023/10/19 11:51:13;;;;;;;17.02;12.73;;;17.40;99.90;;;;;;5043534;28;20212;-73
2023/10/19 11:53:42;;;;;;;10.75;8.32;;;17.30;99.90;;;;;;5051265;28;20225;-72
2023/10/19 11:56:12;;;;;;;11.25;7.00;;;17.40;99.90;;;;;;5049076;28;20205;-73
2023/10/19 11:58:41;;;;;;;13.13;8.77;;;17.40;99.90;;;;;;5046515;28;20698;-72
2023/10/19 12:01:12;;;;;;;16.02;11.05;;;17.50;99.90;;;;;;5051452;28;20205;-72
2023/10/19 12:03:40;;;;;;;12.45;9.77;;;17.60;99.90;;;;;;5051276;28;20230;-72
2023/10/19 12:06:10;;;;;;;21.77;12.60;;;17.60;99.90;;;;;;5043391;28;20233;-72
2023/10/19 12:08:39;;;;;;;13.93;9.88;;;17.70;99.90;;;;;;5051426;28;20205;-72
2023/10/19 12:11:15;;;;;;;16.15;10.60;;;17.60;99.90;;;;;;5051448;28;20639;-72
2023/10/19 12:13:44;;;;;;;19.40;11.50;;;17.60;99.90;;;;;;5050843;28;20224;-72
2023/10/19 12:16:13;;;;;;;15.77;9.88;;;17.70;99.90;;;;;;5048462;28;20206;-72
2023/10/19 12:18:41;;;;;;;11.70;9.82;;;17.60;99.90;;;;;;5045572;28;20202;-72
2023/10/19 12:21:12;;;;;;;15.60;10.70;;;17.60;99.90;;;;;;5049148;28;20236;-72
2023/10/19 12:23:40;;;;;;;15.23;10.00;;;17.70;99.90;;;;;;5045617;28;20263;-72
2023/10/19 12:26:11;;;;;;;13.20;11.75;;;17.70;99.90;;;;;;5048289;28;20267;-72
2023/10/19 12:28:39;;;;;;;16.83;11.65;;;17.80;99.90;;;;;;5045380;28;20652;-72
2023/10/19 12:31:08;;;;;;;18.27;12.57;;;17.70;99.90;;;;;;5051215;28;20197;-72
2023/10/19 12:33:38;;;;;;;20.55;12.73;;;17.70;99.90;;;;;;5050736;28;20233;-73
2023/10/19 12:36:23;;;;;;;16.92;12.07;;;17.60;99.90;;;;;;5042732;28;20210;-72
2023/10/19 12:38:52;;;;;;;18.88;12.95;;;17.50;99.90;;;;;;5034596;28;20691;-73
2023/10/19 12:41:20;;;;;;;16.58;12.38;;;17.40;99.90;;;;;;5031063;28;20672;-73
2023/10/19 12:43:51;;;;;;;16.25;12.43;;;17.30;99.90;;;;;;5037993;28;20241;-73